createdAt,value
2023-05-05T00:00:14.900Z,72.1622
2023-05-05T00:01:15.707Z,72.4649
2023-05-05T00:02:16.112Z,72.5552
2023-05-05T00:03:18.130Z,72.7726
2023-05-05T00:04:22.856Z,72.9435
2023-05-05T00:05:25.181Z,73.1857
2023-05-05T00:06:25.749Z,72.1351
2023-05-05T00:07:27.697Z,70.8378
2023-05-05T00:08:29.607Z,71.4218
2023-05-05T00:09:30.558Z,72.4665
2023-05-05T00:10:32.456Z,72.9344
2023-05-05T00:11:34.661Z,73.4280
2023-05-05T00:12:35.751Z,73.6786
2023-05-05T00:13:36.518Z,74.6263
2023-05-05T00:14:37.370Z,74.5767
2023-05-05T00:15:38.955Z,75.0337
2023-05-05T00:16:39.494Z,75.5432
2023-05-05T00:17:41.028Z,74.7248
2023-05-05T00:18:42.236Z,74.9509
2023-05-05T00:19:43.662Z,74.4535
2023-05-05T00:20:44.841Z,75.3519
2023-05-05T00:21:46.539Z,74.6894
2023-05-05T00:22:48.492Z,74.3213
2023-05-05T00:23:51.822Z,74.6862
2023-05-05T00:24:53.907Z,74.1982
2023-05-05T00:25:55.610Z,74.2103
2023-05-05T00:26:57.724Z,74.3110
2023-05-05T00:27:57.712Z,74.5249
2023-05-05T00:29:00.702Z,74.3709
2023-05-05T00:30:32.879Z,74.9956
2023-05-05T00:31:34.324Z,75.6211
2023-05-05T00:32:38.028Z,74.4796
2023-05-05T00:33:40.338Z,74.1646
2023-05-05T00:34:43.008Z,74.2801
2023-05-05T00:35:43.221Z,74.5585
2023-05-05T00:36:43.505Z,74.3020
2023-05-05T00:38:12.707Z,74.1900
2023-05-05T00:39:14.418Z,74.2564
2023-05-05T00:40:16.866Z,73.9635
2023-05-05T00:41:20.183Z,74.5906
2023-05-05T00:42:22.603Z,73.9776
2023-05-05T00:43:23.833Z,73.8911
2023-05-05T00:44:26.570Z,73.7193
2023-05-05T00:45:29.703Z,73.8911
2023-05-05T00:46:30.976Z,73.9435
2023-05-05T00:47:33.359Z,74.3576
2023-05-05T00:48:33.424Z,74.4234
2023-05-05T00:49:35.686Z,74.1275
2023-05-05T00:50:42.261Z,74.2943
2023-05-05T00:52:08.956Z,74.1039
2023-05-05T00:53:11.206Z,75.0138
2023-05-05T00:54:12.574Z,74.5570
2023-05-05T00:55:13.808Z,74.5447
2023-05-05T00:56:17.978Z,74.2818
2023-05-05T00:57:19.610Z,74.6310
2023-05-05T00:58:19.678Z,75.0647
2023-05-05T00:59:20.481Z,75.1245
2023-05-05T01:00:22.161Z,75.1131
2023-05-05T01:01:24.866Z,75.3590
2023-05-05T01:02:28.281Z,75.8969
2023-05-05T01:03:29.210Z,76.4681
2023-05-05T01:04:30.291Z,76.4174
2023-05-05T01:05:31.149Z,76.2380
2023-05-05T01:06:34.771Z,75.7501
2023-05-05T01:07:35.106Z,75.7052
2023-05-05T01:08:35.280Z,75.8340
2023-05-05T01:09:38.377Z,76.0543
2023-05-05T01:10:42.447Z,74.7654
2023-05-05T01:11:43.411Z,74.7695
2023-05-05T01:13:11.537Z,73.2884
2023-05-05T01:14:13.185Z,72.8761
2023-05-05T01:15:15.855Z,73.2130
2023-05-05T01:16:18.524Z,73.4682
2023-05-05T01:17:18.740Z,74.2109
2023-05-05T01:18:20.988Z,74.8510
2023-05-05T01:19:25.985Z,75.7124
2023-05-05T01:20:26.626Z,76.1656
2023-05-05T01:21:56.743Z,77.0037
2023-05-05T01:23:00.476Z,76.9917
2023-05-05T01:24:00.629Z,77.4769
2023-05-05T01:25:06.807Z,77.8252
2023-05-05T01:26:34.280Z,77.8299
2023-05-05T01:27:35.092Z,78.0346
2023-05-05T01:29:03.686Z,77.9259
2023-05-05T01:30:04.315Z,78.1725
2023-05-05T01:31:36.576Z,78.7694
2023-05-05T01:32:39.915Z,79.0624
2023-05-05T01:33:40.800Z,79.3251
2023-05-05T01:34:44.628Z,79.2177
2023-05-05T01:35:45.650Z,79.4890
2023-05-05T01:36:48.222Z,79.2800
2023-05-05T01:37:49.635Z,79.0994
2023-05-05T01:38:51.531Z,78.8442
2023-05-05T01:39:51.709Z,78.7731
2023-05-05T01:40:54.396Z,78.6733
2023-05-05T01:41:57.211Z,78.5763
2023-05-05T01:43:02.812Z,78.4361
2023-05-05T01:44:02.893Z,78.4057
2023-05-05T01:45:08.185Z,78.5443
2023-05-05T01:46:10.291Z,78.2047
2023-05-05T01:47:11.695Z,78.0959
2023-05-05T01:48:15.481Z,78.2658
2023-05-05T01:49:19.173Z,78.3537
2023-05-05T01:50:20.913Z,78.7217
2023-05-05T01:51:22.537Z,78.3687
2023-05-05T01:52:25.795Z,78.0779
2023-05-05T01:53:27.833Z,77.2996
2023-05-05T01:54:27.796Z,77.6214
2023-05-05T01:55:32.291Z,77.5536
2023-05-05T01:56:35.977Z,77.6454
2023-05-05T01:57:38.093Z,77.6262
2023-05-05T01:58:41.405Z,78.0124
2023-05-05T01:59:43.528Z,77.8273
2023-05-05T02:00:43.714Z,77.7140
2023-05-05T02:02:47.471Z,77.5209
2023-05-05T02:03:49.512Z,77.4271
2023-05-05T02:04:49.386Z,77.0821
2023-05-05T02:05:49.773Z,77.1483
2023-05-05T02:06:53.535Z,78.4052
2023-05-05T02:07:55.752Z,78.2031
2023-05-05T02:08:57.997Z,77.3402
2023-05-05T02:10:01.740Z,76.7643
2023-05-05T02:11:04.308Z,76.2351
2023-05-05T02:12:32.345Z,73.4930
2023-05-05T02:14:04.807Z,73.1470
2023-05-05T02:15:09.824Z,72.4426
2023-05-05T02:16:13.206Z,72.4301
2023-05-05T02:18:42.698Z,71.1408
2023-05-05T02:19:46.521Z,71.1730
2023-05-05T02:20:48.844Z,71.2121
2023-05-05T02:21:49.435Z,71.4475
2023-05-05T02:22:49.881Z,72.4274
2023-05-05T02:23:53.035Z,73.3850
2023-05-05T02:24:55.260Z,73.4377
2023-05-05T02:26:25.273Z,73.5829
2023-05-05T02:27:29.809Z,72.2224
2023-05-05T02:28:33.515Z,73.7111
2023-05-05T02:29:38.084Z,74.3486
2023-05-05T02:30:43.758Z,74.9534
2023-05-05T02:31:44.021Z,75.4384
2023-05-05T02:32:44.884Z,75.4726
2023-05-05T02:33:48.454Z,76.2059
2023-05-05T02:34:51.577Z,76.4939
2023-05-05T02:36:50.871Z,77.3997
2023-05-05T02:37:51.234Z,77.4010
2023-05-05T02:38:53.136Z,77.9440
2023-05-05T02:39:54.145Z,77.8917
2023-05-05T02:40:55.100Z,78.0179
2023-05-05T02:46:02.383Z,78.6601
2023-05-05T02:49:06.991Z,79.3695
2023-05-05T02:50:09.265Z,79.4979
2023-05-05T02:51:13.157Z,79.9056
2023-05-05T02:52:15.494Z,79.9077
2023-05-05T03:02:08.036Z,80.2623
2023-05-05T03:03:09.268Z,80.2832
2023-05-05T03:04:13.223Z,80.0545
2023-05-05T03:05:16.972Z,79.6782
2023-05-05T03:06:20.535Z,79.3111
2023-05-05T03:07:22.875Z,79.3745
2023-05-05T03:08:24.743Z,79.5853
2023-05-05T03:09:25.786Z,79.4493
2023-05-05T03:10:28.631Z,79.7879
2023-05-05T03:11:29.460Z,79.6330
2023-05-05T03:12:30.607Z,79.6014
2023-05-05T03:13:34.954Z,80.4180
2023-05-05T03:14:37.352Z,80.3677
2023-05-05T03:15:39.100Z,80.3637
2023-05-05T03:16:40.275Z,79.9330
2023-05-05T03:17:42.467Z,79.4855
2023-05-05T03:18:47.356Z,79.7814
2023-05-05T03:19:50.639Z,80.1095
2023-05-05T03:20:54.889Z,80.0565
2023-05-05T03:21:57.139Z,80.2747
2023-05-05T03:23:02.973Z,80.3992
2023-05-05T03:24:31.334Z,80.0642
2023-05-05T03:25:32.571Z,79.9587
2023-05-05T03:26:36.298Z,79.6882
2023-05-05T03:27:36.650Z,79.6355
2023-05-05T03:30:41.381Z,77.9205
2023-05-05T03:31:44.812Z,77.3578
2023-05-05T03:32:47.052Z,76.7907
2023-05-05T03:33:47.760Z,75.9532
2023-05-05T03:46:47.909Z,74.6963
2023-05-05T03:47:47.543Z,74.4772
2023-05-05T03:52:52.130Z,73.3681
2023-05-05T03:53:52.756Z,73.9487
2023-05-05T03:55:19.727Z,72.6467
2023-05-05T03:56:22.260Z,72.5022
2023-05-05T03:57:26.527Z,73.9690
2023-05-05T03:58:32.158Z,73.5834
2023-05-05T03:59:32.610Z,73.9962
2023-05-05T04:30:21.844Z,80.2892
2023-05-05T04:31:26.880Z,78.6490
2023-05-05T04:40:49.673Z,77.5189
2023-05-05T04:41:57.324Z,77.1923
2023-05-05T04:43:00.753Z,77.4480
2023-05-05T04:44:11.613Z,77.1041
2023-05-05T04:52:48.064Z,77.3791
2023-05-05T04:53:49.929Z,78.0231
2023-05-05T04:54:52.871Z,78.6131
2023-05-05T04:55:57.011Z,78.3659
2023-05-05T05:01:58.542Z,79.0375
2023-05-05T05:03:00.481Z,77.9342
2023-05-05T05:08:26.722Z,75.0273
2023-05-05T05:13:29.284Z,78.6021
2023-05-05T05:14:34.155Z,78.9517
2023-05-05T05:15:36.907Z,79.3792
2023-05-05T05:16:38.524Z,79.7764
2023-05-05T05:17:40.625Z,79.9410
2023-05-05T05:18:40.935Z,80.5035
2023-05-05T05:19:41.082Z,80.8696
2023-05-05T05:43:12.748Z,82.6585
2023-05-05T05:44:14.956Z,82.5337
2023-05-05T05:45:17.349Z,82.5469
2023-05-05T05:46:17.816Z,82.3951
2023-05-05T05:59:19.138Z,79.5612
2023-05-05T06:00:19.863Z,79.6591
2023-05-05T06:01:21.074Z,79.3678
2023-05-05T06:02:26.189Z,79.1237
2023-05-05T06:03:29.757Z,79.4874
2023-05-05T06:08:41.457Z,77.9936
2023-05-05T06:09:43.438Z,77.9693
2023-05-05T06:10:43.963Z,78.4356
2023-05-05T06:11:44.774Z,78.5435
2023-05-05T06:13:14.490Z,79.2227
2023-05-05T06:14:20.436Z,78.6620
2023-05-05T06:15:22.701Z,78.6080
2023-05-05T06:30:50.902Z,73.7967
2023-05-05T06:32:24.378Z,73.4615
2023-05-05T06:33:52.137Z,73.5914
2023-05-05T06:34:59.183Z,72.4320
2023-05-05T06:35:57.048Z,70.1693
2023-05-05T06:37:56.361Z,70.3288
2023-05-05T06:45:10.036Z,70.0842
2023-05-05T06:46:37.672Z,69.3380
2023-05-05T06:48:08.619Z,69.6876
2023-05-05T06:49:10.838Z,68.6379
2023-05-05T06:50:38.853Z,68.6337
2023-05-05T06:51:43.149Z,68.0069
2023-05-05T06:53:10.718Z,67.9254
2023-05-05T06:54:43.998Z,67.3458
2023-05-05T06:56:12.401Z,66.8158
2023-05-05T06:57:41.182Z,66.1650
2023-05-05T06:59:09.993Z,65.5702
2023-05-05T07:00:40.947Z,65.0031
2023-05-05T07:02:09.589Z,64.6710
2023-05-05T07:03:41.195Z,63.2829
2023-05-05T07:04:44.429Z,62.9164
2023-05-05T07:06:14.609Z,62.2810
2023-05-05T07:07:43.925Z,63.3659
2023-05-05T07:09:17.662Z,63.9901
2023-05-05T07:10:16.416Z,65.0790
2023-05-05T07:11:49.372Z,64.8276
2023-05-05T07:13:49.780Z,63.1492
2023-05-05T07:15:29.270Z,63.7348
2023-05-05T07:16:50.371Z,63.2624
2023-05-05T07:18:21.631Z,63.1274
2023-05-05T07:19:51.935Z,62.7971
2023-05-05T07:21:20.842Z,62.9781
2023-05-05T07:22:22.433Z,62.9638
2023-05-05T07:23:52.419Z,63.2031
2023-05-05T07:25:21.220Z,63.1193
2023-05-05T07:26:52.618Z,62.7133
2023-05-05T07:28:23.346Z,62.7722
2023-05-05T07:29:53.983Z,62.4522
2023-05-05T07:30:54.929Z,63.1203
2023-05-05T07:32:25.283Z,63.5019
2023-05-05T07:33:57.182Z,62.7195
2023-05-05T07:35:28.979Z,63.0826
2023-05-05T07:36:58.107Z,62.1789
2023-05-05T07:38:28.132Z,63.1343
2023-05-05T07:39:58.565Z,63.5574
2023-05-05T07:41:27.589Z,63.5313
2023-05-05T07:42:58.511Z,63.9121
2023-05-05T07:45:29.554Z,64.0440
2023-05-05T07:47:02.016Z,63.3586
2023-05-05T07:48:32.507Z,63.2020
2023-05-05T07:50:03.654Z,62.9787
2023-05-05T07:51:35.292Z,62.4738
2023-05-05T07:53:14.912Z,63.3825
2023-05-05T07:54:06.198Z,64.0816
2023-05-05T07:55:37.903Z,63.3952
2023-05-05T07:57:08.011Z,63.4497
2023-05-05T07:58:39.141Z,63.5659
2023-05-05T08:00:11.864Z,63.1484
2023-05-05T08:01:42.683Z,63.0350
2023-05-05T08:03:13.200Z,63.1220
2023-05-05T08:04:45.386Z,62.9872
2023-05-05T08:06:15.664Z,62.9830
2023-05-05T08:07:47.579Z,63.4650
2023-05-05T08:09:16.562Z,62.8638
2023-05-05T08:10:47.963Z,62.8158
2023-05-05T08:12:16.754Z,63.3939
2023-05-05T08:13:46.453Z,62.9356
2023-05-05T08:15:17.711Z,63.0436
2023-05-05T08:16:49.513Z,62.6934
2023-05-05T08:18:20.220Z,63.1371
2023-05-05T08:19:49.186Z,62.5520
2023-05-05T08:21:52.000Z,62.6216
2023-05-05T08:24:56.226Z,62.4088
2023-05-05T08:26:58.052Z,62.6930
2023-05-05T08:28:29.440Z,60.7177
2023-05-05T08:30:01.502Z,59.7170
2023-05-05T08:31:31.252Z,59.6897
2023-05-05T08:33:03.820Z,59.5871
2023-05-05T08:34:33.654Z,60.0431
2023-05-05T08:35:35.392Z,59.2630
2023-05-05T08:37:05.850Z,59.2343
2023-05-05T08:38:36.274Z,59.1873
2023-05-05T08:40:09.145Z,59.1902
2023-05-05T08:41:39.450Z,58.4749
2023-05-05T08:42:40.015Z,58.6073
2023-05-05T08:43:43.184Z,58.7639
2023-05-05T08:45:14.550Z,58.4625
2023-05-05T08:46:45.164Z,58.5664
2023-05-05T08:48:14.084Z,58.2341
2023-05-05T08:49:43.870Z,58.6205
2023-05-05T08:51:16.305Z,57.8117
2023-05-05T08:52:51.215Z,58.4587
2023-05-05T08:54:17.991Z,58.4298
2023-05-05T08:55:48.635Z,58.3025
2023-05-05T08:57:19.631Z,57.8207
2023-05-05T08:58:50.912Z,57.5176
2023-05-05T09:00:20.182Z,57.5404
2023-05-05T09:01:50.936Z,58.0735
2023-05-05T09:03:22.353Z,58.8248
2023-05-05T09:04:52.128Z,58.7059
2023-05-05T09:06:21.914Z,59.7052
2023-05-05T09:07:52.492Z,60.1177
2023-05-05T09:09:22.291Z,59.8219
2023-05-05T09:10:52.040Z,59.7689
2023-05-05T09:12:22.369Z,59.3845
2023-05-05T09:13:53.659Z,59.2320
2023-05-05T09:15:25.011Z,57.9278
2023-05-05T09:16:56.342Z,57.9209
2023-05-05T09:18:26.505Z,57.2107
2023-05-05T09:19:56.301Z,56.9771
2023-05-05T09:21:27.019Z,57.0581
2023-05-05T09:22:58.479Z,56.5865
2023-05-05T09:24:30.498Z,57.1028
2023-05-05T09:26:00.985Z,56.8971
2023-05-05T09:27:30.965Z,56.7184
2023-05-05T09:29:01.186Z,56.7179
2023-05-05T09:30:32.528Z,56.2143
2023-05-05T09:32:03.322Z,56.0068
2023-05-05T09:33:34.915Z,56.6883
2023-05-05T09:35:05.364Z,56.7152
2023-05-05T09:36:34.567Z,57.0135
2023-05-05T09:38:06.124Z,57.6731
2023-05-05T09:39:36.932Z,57.1478
2023-05-05T09:41:08.501Z,56.9435
2023-05-05T09:42:39.118Z,57.2511
2023-05-05T09:44:09.923Z,58.1610
2023-05-05T09:45:41.592Z,58.7037
2023-05-05T09:47:29.111Z,58.3619
2023-05-05T09:48:43.660Z,56.8050
2023-05-05T09:50:14.035Z,57.3563
2023-05-05T09:51:44.044Z,57.7052
2023-05-05T09:53:13.336Z,57.2087
2023-05-05T09:54:43.792Z,56.7094
2023-05-05T09:56:13.050Z,56.8148
2023-05-05T09:57:43.416Z,56.0266
2023-05-05T09:59:13.137Z,55.8242
2023-05-05T10:00:43.471Z,55.5088
2023-05-05T10:02:13.829Z,56.7547
2023-05-05T10:03:44.210Z,56.3004
2023-05-05T10:05:14.757Z,55.3312
2023-05-05T10:06:43.753Z,55.3864
2023-05-05T10:08:14.078Z,55.2593
2023-05-05T10:09:44.385Z,55.6828
2023-05-05T10:11:13.712Z,55.4657
2023-05-05T10:12:44.016Z,55.7629
2023-05-05T10:14:14.756Z,56.1031
2023-05-05T10:15:46.099Z,54.8537
2023-05-05T10:17:16.495Z,54.4656
2023-05-05T10:18:45.775Z,54.4038
2023-05-05T10:20:15.020Z,54.3334
2023-05-05T10:21:44.291Z,54.6992
2023-05-05T10:23:14.104Z,54.2465
2023-05-05T10:24:45.643Z,53.3988
2023-05-05T10:26:15.438Z,53.4765
2023-05-05T10:27:45.100Z,53.8162
2023-05-05T10:29:15.856Z,53.6689
2023-05-05T10:30:45.223Z,53.8927
2023-05-05T10:32:40.820Z,53.7051
2023-05-05T10:33:45.367Z,54.3034
2023-05-05T10:35:14.933Z,53.6064
2023-05-05T10:36:45.223Z,53.2040
2023-05-05T10:38:15.953Z,53.2820
2023-05-05T10:39:45.289Z,53.5885
2023-05-05T10:41:14.577Z,53.4655
2023-05-05T10:42:43.965Z,53.6755
2023-05-05T10:44:13.173Z,53.2394
2023-05-05T10:45:44.071Z,53.2366
2023-05-05T10:47:14.483Z,53.2959
2023-05-05T10:48:45.980Z,53.2632
2023-05-05T10:50:14.765Z,53.3291
2023-05-05T10:51:44.148Z,53.7307
2023-05-05T10:53:15.397Z,53.3960
2023-05-05T10:54:46.125Z,53.1147
2023-05-05T10:56:16.953Z,52.8173
2023-05-05T10:57:48.109Z,52.9920
2023-05-05T10:59:18.416Z,52.6380
2023-05-05T11:00:47.801Z,52.8423
2023-05-05T11:02:17.106Z,52.7256
2023-05-05T11:03:47.657Z,51.9828
2023-05-05T11:05:19.044Z,51.6365
2023-05-05T11:06:49.383Z,51.4948
2023-05-05T11:08:18.725Z,51.8722
2023-05-05T11:09:48.525Z,51.9468
2023-05-05T11:11:18.799Z,51.0557
2023-05-05T11:12:48.584Z,51.1981
2023-05-05T11:14:17.874Z,51.0604
2023-05-05T11:15:49.031Z,50.3086
2023-05-05T11:17:18.404Z,50.6025
2023-05-05T11:18:47.840Z,49.3467
2023-05-05T11:20:17.258Z,46.8686
2023-05-05T11:21:46.949Z,45.8896
2023-05-05T11:23:17.059Z,44.9551
2023-05-05T11:24:45.439Z,45.6297
2023-05-05T11:26:14.712Z,43.9613
2023-05-05T11:27:43.905Z,46.2002
2023-05-05T11:29:14.092Z,44.8935
2023-05-05T11:30:44.422Z,44.9638
2023-05-05T11:32:13.923Z,45.0956
2023-05-05T11:33:15.818Z,45.1324
2023-05-05T11:34:45.948Z,46.2678
2023-05-05T11:36:16.047Z,47.9915
2023-05-05T11:37:45.112Z,46.3918
2023-05-05T11:39:14.229Z,44.0364
2023-05-05T11:40:43.265Z,42.3913
2023-05-05T11:42:13.293Z,41.4990
2023-05-05T11:43:43.435Z,42.1240
2023-05-05T11:44:44.829Z,42.3317
2023-05-05T11:46:16.480Z,42.1914
2023-05-05T11:47:45.052Z,43.3590
2023-05-05T11:49:14.033Z,43.2100
2023-05-05T11:50:43.562Z,44.1789
2023-05-05T11:52:12.655Z,42.9862
2023-05-05T11:53:41.661Z,43.1159
2023-05-05T11:55:10.719Z,42.7621
2023-05-05T11:56:41.766Z,44.1325
2023-05-05T11:58:10.811Z,42.8848
2023-05-05T11:59:40.846Z,44.4625
2023-05-05T12:01:10.947Z,47.3868
2023-05-05T12:02:40.597Z,46.9053
2023-05-05T12:04:10.582Z,47.3299
2023-05-05T12:05:39.204Z,48.2845
2023-05-05T12:07:09.322Z,47.7482
2023-05-05T12:08:39.450Z,46.0590
2023-05-05T12:10:09.310Z,45.9738
2023-05-05T12:11:37.633Z,45.4977
2023-05-05T12:13:06.813Z,43.7471
2023-05-05T12:14:36.825Z,43.4421
2023-05-05T12:16:06.995Z,43.3445
2023-05-05T12:17:36.932Z,43.2082
2023-05-05T12:19:05.969Z,42.3726
2023-05-05T12:20:35.894Z,43.2795
2023-05-05T12:22:04.911Z,43.6032
2023-05-05T12:23:33.849Z,43.1007
2023-05-05T12:25:03.874Z,44.5214
2023-05-05T12:26:32.840Z,42.9993
2023-05-05T12:28:01.702Z,43.5882
2023-05-05T12:29:31.713Z,44.3295
2023-05-05T12:31:01.916Z,44.7194
2023-05-05T12:32:31.805Z,44.4420
2023-05-05T12:34:01.881Z,42.4133
2023-05-05T12:35:31.991Z,42.0364
2023-05-05T12:37:01.850Z,40.9210
2023-05-05T12:38:31.842Z,40.9647
2023-05-05T12:40:00.726Z,39.4975
2023-05-05T12:41:29.681Z,42.2912
2023-05-05T12:42:59.606Z,41.6078
2023-05-05T12:44:29.067Z,43.3908
2023-05-05T12:45:59.189Z,42.7047
2023-05-05T12:47:29.549Z,41.9373
2023-05-05T12:48:59.989Z,41.8681
2023-05-05T12:50:28.880Z,41.1130
2023-05-05T12:51:57.823Z,41.7485
2023-05-05T12:53:27.731Z,43.2749
2023-05-05T12:54:57.596Z,42.1278
2023-05-05T12:56:26.487Z,41.1875
2023-05-05T12:57:56.409Z,40.9744
2023-05-05T12:59:26.310Z,38.3820
2023-05-05T13:00:56.747Z,37.8438
2023-05-05T13:02:25.565Z,38.2201
2023-05-05T13:03:54.376Z,38.3145
2023-05-05T13:05:23.255Z,38.1181
2023-05-05T13:06:54.686Z,35.6723
2023-05-05T13:08:20.949Z,37.0060
2023-05-05T13:09:50.790Z,37.9063
2023-05-05T13:11:19.614Z,36.1373
2023-05-05T13:12:48.429Z,34.9655
2023-05-05T13:14:17.267Z,34.7299
2023-05-05T13:15:47.106Z,37.5363
2023-05-05T13:17:15.870Z,42.3807
2023-05-05T13:18:45.721Z,41.3187
2023-05-05T13:20:15.638Z,42.2894
2023-05-05T13:21:44.538Z,42.0552
2023-05-05T13:23:13.361Z,41.6134
2023-05-05T13:24:52.165Z,40.5987
2023-05-05T13:26:12.182Z,41.4445
2023-05-05T13:27:41.153Z,40.0587
2023-05-05T13:29:10.099Z,40.2397
2023-05-05T13:30:38.979Z,38.5922
2023-05-05T13:32:07.842Z,39.9852
2023-05-05T13:33:36.783Z,40.5087
2023-05-05T13:35:05.715Z,38.7707
2023-05-05T13:36:35.494Z,36.6955
2023-05-05T13:38:05.445Z,37.8910
2023-05-05T13:39:35.325Z,40.1337
2023-05-05T13:41:05.379Z,42.4102
2023-05-05T13:42:34.170Z,41.8819
2023-05-05T13:44:04.171Z,43.9885
2023-05-05T13:45:34.159Z,44.1812
2023-05-05T13:47:04.157Z,43.9342
2023-05-05T13:48:33.093Z,43.7175
2023-05-05T13:50:02.224Z,44.1243
2023-05-05T13:51:32.116Z,45.5762
2023-05-05T13:53:01.133Z,44.8488
2023-05-05T13:54:30.111Z,44.5989
2023-05-05T13:55:59.218Z,44.9276
2023-05-05T13:57:30.684Z,43.6257
2023-05-05T13:59:00.323Z,42.9163
2023-05-05T14:00:29.448Z,42.4420
2023-05-05T14:01:58.387Z,42.0749
2023-05-05T14:03:27.417Z,42.4242
2023-05-05T14:04:57.241Z,44.8396
2023-05-05T14:06:26.696Z,44.3378
2023-05-05T14:07:56.679Z,44.6455
2023-05-05T14:09:25.812Z,45.1612
2023-05-05T14:10:55.969Z,45.5388
2023-05-05T14:12:26.051Z,45.3061
2023-05-05T14:13:56.241Z,45.0860
2023-05-05T14:15:26.043Z,45.6640
2023-05-05T14:16:56.115Z,46.8806
2023-05-05T14:18:25.746Z,45.6572
2023-05-05T14:19:56.627Z,46.3793
2023-05-05T14:21:26.092Z,45.5810
2023-05-05T14:22:55.245Z,46.1373
2023-05-05T14:24:25.641Z,46.1958
2023-05-05T14:25:54.818Z,46.4277
2023-05-05T14:27:24.050Z,46.1756
2023-05-05T14:28:53.790Z,46.2676
2023-05-05T14:30:23.111Z,46.1862
2023-05-05T14:31:52.601Z,46.2924
2023-05-05T14:33:21.809Z,47.4322
2023-05-05T14:34:51.105Z,47.4155
2023-05-05T14:36:21.325Z,48.6056
2023-05-05T14:37:50.598Z,48.5198
2023-05-05T14:39:19.719Z,48.0722
2023-05-05T14:40:48.928Z,46.7442
2023-05-05T14:42:18.168Z,47.1572
2023-05-05T14:43:47.407Z,47.6855
2023-05-05T14:45:17.650Z,47.7065
2023-05-05T14:46:51.360Z,47.6781
2023-05-05T14:48:17.150Z,48.1689
2023-05-05T14:49:47.464Z,48.7590
2023-05-05T14:51:17.095Z,49.2022
2023-05-05T14:52:46.371Z,48.5444
2023-05-05T14:54:28.470Z,49.2082
2023-05-05T14:55:47.220Z,48.1797
2023-05-05T14:57:18.307Z,48.5102
2023-05-05T14:58:49.758Z,48.5876
2023-05-05T15:00:18.497Z,48.9752
2023-05-05T15:01:47.931Z,48.7449
2023-05-05T15:03:19.252Z,48.7075
2023-05-05T15:04:50.568Z,49.0891
2023-05-05T15:06:19.976Z,48.9807
2023-05-05T15:07:51.571Z,49.2453
2023-05-05T15:09:21.277Z,49.7692
2023-05-05T15:10:52.393Z,49.7512
2023-05-05T15:12:22.241Z,49.5920
2023-05-05T15:13:53.842Z,49.6532
2023-05-05T15:15:23.345Z,49.6824
2023-05-05T15:16:53.370Z,49.8312
2023-05-05T15:18:22.203Z,51.5667
2023-05-05T15:19:53.537Z,50.6731
2023-05-05T15:21:23.519Z,51.5119
2023-05-05T15:22:54.545Z,52.1358
2023-05-05T15:24:25.367Z,51.7441
2023-05-05T15:25:55.188Z,52.3150
2023-05-05T15:27:25.511Z,55.2504
2023-05-05T15:28:54.893Z,61.0095
2023-05-05T15:30:25.764Z,63.8823
2023-05-05T15:31:57.162Z,65.0456
2023-05-05T15:33:29.249Z,65.5514
2023-05-05T15:35:00.766Z,65.6400
2023-05-05T15:36:29.650Z,65.9213
2023-05-05T15:37:59.632Z,66.3652
2023-05-05T15:39:29.930Z,67.6759
2023-05-05T15:40:32.164Z,68.9431
2023-05-05T15:41:34.760Z,70.0403
2023-05-05T15:42:35.937Z,70.9458
2023-05-05T15:44:08.183Z,71.4815
2023-05-05T15:49:18.412Z,71.2847
2023-05-05T15:50:46.166Z,70.5343
2023-05-05T15:52:15.052Z,70.8181
2023-05-05T16:10:56.123Z,65.8999
2023-05-05T16:11:59.172Z,65.1456
2023-05-05T16:13:30.013Z,65.0669
2023-05-05T16:15:00.165Z,64.9524
2023-05-05T16:16:32.515Z,64.3021
2023-05-05T16:18:01.827Z,64.7488
2023-05-05T16:19:32.779Z,64.3608
2023-05-05T16:21:03.336Z,64.9541
2023-05-05T16:22:05.981Z,65.4788
2023-05-05T16:23:35.967Z,66.0828
2023-05-05T16:25:05.152Z,66.6992
2023-05-05T16:26:08.691Z,66.8116
2023-05-05T16:27:37.347Z,67.1838
2023-05-05T16:28:39.772Z,67.5670
2023-05-05T16:30:09.807Z,67.4478
2023-05-05T16:31:38.420Z,68.0962
2023-05-05T16:33:07.383Z,67.7115
2023-05-05T16:34:39.290Z,68.2154
2023-05-05T16:36:08.450Z,67.7338
2023-05-05T16:37:40.594Z,68.0094
2023-05-05T16:39:11.320Z,68.4957
2023-05-05T16:40:40.051Z,68.7584
2023-05-05T16:41:41.720Z,68.6660
2023-05-05T16:43:14.441Z,69.5455
2023-05-05T16:44:46.950Z,69.5092
2023-05-05T16:46:15.852Z,69.9483
2023-05-05T16:47:46.382Z,70.1208
2023-05-05T16:49:16.105Z,70.4154
2023-05-05T16:50:18.952Z,70.1546
2023-05-05T16:51:48.561Z,70.7096
2023-05-05T16:52:49.575Z,70.6533
2023-05-05T16:53:51.913Z,70.4513
2023-05-05T16:55:23.502Z,71.0076
2023-05-05T16:56:57.227Z,71.3096
2023-05-05T16:58:24.432Z,71.2672
2023-05-05T16:59:54.499Z,71.3147
2023-05-05T17:01:25.974Z,71.6863
2023-05-05T17:02:57.325Z,71.9248
2023-05-05T17:04:28.016Z,72.3998
2023-05-05T17:05:58.941Z,72.7947
2023-05-05T17:07:02.490Z,73.4688
2023-05-05T17:08:34.004Z,73.0226
2023-05-05T17:09:35.908Z,73.2332
2023-05-05T17:11:05.600Z,73.6866
2023-05-05T17:12:08.702Z,73.4061
2023-05-05T17:13:09.054Z,73.4697
2023-05-05T17:14:13.407Z,73.7463
2023-05-05T17:27:38.522Z,73.0356
2023-05-05T17:28:38.529Z,72.7948
2023-05-05T17:31:10.638Z,72.8650
2023-05-05T17:41:30.984Z,70.8545
2023-05-05T17:45:08.537Z,71.2322
2023-05-05T17:52:55.631Z,72.5349
2023-05-05T17:57:32.888Z,73.6057
